Time;durP1;ratioP1;P1;durP2;ratioP2;P2;SDS_P1;SDS_P2;PMS_P1;PMS_P2;Temp;Humidity;BMP_temperature;BMP_pressure;BME280_temperature;BME280_humidity;BME280_pressure;Samples;Min_cycle;Max_cycle;Signal;HPM_P1;HPM_P2
2022/07/09 00:00:23;;;;;;;17.13;6.82;;;16.80;99.90;;;;;;5029086;28;20459;-75
2022/07/09 00:02:49;;;;;;;13.98;6.75;;;16.70;99.90;;;;;;5047392;28;20032;-76
2022/07/09 00:05:14;;;;;;;18.52;7.38;;;16.80;99.90;;;;;;5059555;28;20558;-76
2022/07/09 00:07:40;;;;;;;19.13;6.90;;;16.80;99.90;;;;;;5057475;28;20059;-77
2022/07/09 00:10:06;;;;;;;18.92;7.10;;;16.80;99.90;;;;;;5074723;28;20036;-75
2022/07/09 00:12:32;;;;;;;15.70;6.90;;;16.80;99.90;;;;;;5055255;28;20035;-75
2022/07/09 00:14:58;;;;;;;17.17;7.05;;;16.70;99.90;;;;;;5028337;28;20049;-76
2022/07/09 00:17:25;;;;;;;22.58;7.00;;;16.90;99.90;;;;;;5041279;28;20044;-76
2022/07/09 00:19:51;;;;;;;14.98;7.50;;;16.90;99.90;;;;;;5056116;28;20098;-78
2022/07/09 00:22:17;;;;;;;19.38;7.80;;;16.90;99.90;;;;;;5075042;28;20044;-78
2022/07/09 00:24:42;;;;;;;17.83;7.57;;;16.90;99.90;;;;;;5058254;28;20041;-76
2022/07/09 00:27:08;;;;;;;17.98;7.82;;;16.80;99.90;;;;;;5026258;28;20088;-77
2022/07/09 00:29:34;;;;;;;20.65;8.00;;;16.90;99.90;;;;;;5042701;28;20032;-78
2022/07/09 00:31:59;;;;;;;17.95;7.70;;;16.80;99.90;;;;;;5056597;28;20047;-77
2022/07/09 00:34:25;;;;;;;17.48;7.72;;;16.80;99.90;;;;;;5058268;28;20035;-76
2022/07/09 00:36:50;;;;;;;21.95;7.75;;;16.80;99.90;;;;;;5078703;28;20090;-77
2022/07/09 00:39:17;;;;;;;19.17;7.88;;;16.90;99.90;;;;;;5075666;28;20051;-76
2022/07/09 00:41:43;;;;;;;20.95;7.40;;;16.80;99.90;;;;;;5059644;28;20050;-76
2022/07/09 00:44:09;;;;;;;16.58;7.50;;;16.80;99.90;;;;;;5023584;28;20057;-76
2022/07/09 00:46:34;;;;;;;20.20;8.02;;;16.90;99.90;;;;;;5074333;28;20041;-78
2022/07/09 00:49:06;;;;;;;24.83;7.32;;;16.90;99.90;;;;;;5027360;28;20048;-76
2022/07/09 00:51:32;;;;;;;13.60;7.28;;;16.90;99.90;;;;;;5029028;28;20074;-76
2022/07/09 00:53:59;;;;;;;21.25;7.72;;;16.80;99.90;;;;;;5045154;28;20072;-76
2022/07/09 00:56:27;;;;;;;22.67;7.80;;;16.80;99.90;;;;;;5073996;28;20044;-75
2022/07/09 00:58:53;;;;;;;17.98;7.70;;;16.90;99.90;;;;;;5050217;28;20041;-75
2022/07/09 01:01:19;;;;;;;22.05;7.72;;;16.80;99.90;;;;;;5039236;28;20051;-75
2022/07/09 01:03:44;;;;;;;19.60;7.97;;;16.80;99.90;;;;;;5053628;28;20055;-74
2022/07/09 01:06:10;;;;;;;21.30;7.80;;;16.80;99.90;;;;;;5075718;28;20125;-76
2022/07/09 01:08:37;;;;;;;19.10;7.90;;;16.80;99.90;;;;;;5075264;28;20237;-75
2022/07/09 01:11:02;;;;;;;25.05;7.75;;;16.80;99.90;;;;;;5053348;28;20363;-76
2022/07/09 01:13:28;;;;;;;18.88;7.18;;;16.90;99.90;;;;;;5057003;28;20032;-76
2022/07/09 01:15:54;;;;;;;20.05;7.60;;;16.80;99.90;;;;;;5027764;28;20394;-75
2022/07/09 01:18:20;;;;;;;21.15;7.55;;;16.80;99.90;;;;;;5045709;28;20040;-76
2022/07/09 01:21:35;;;;;;;21.35;7.75;;;16.80;99.90;;;;;;5078039;28;20339;-76
2022/07/09 01:24:02;;;;;;;23.63;7.50;;;16.80;99.90;;;;;;5084428;28;20048;-74
2022/07/09 01:26:28;;;;;;;19.30;7.85;;;16.80;99.90;;;;;;5047317;28;20048;-75
2022/07/09 01:28:53;;;;;;;20.30;7.38;;;16.90;99.90;;;;;;5046472;28;20131;-76
2022/07/09 01:31:19;;;;;;;15.98;7.63;;;16.80;99.90;;;;;;5044939;28;20064;-76
2022/07/09 01:33:45;;;;;;;16.70;7.03;;;16.80;99.90;;;;;;5043883;28;20029;-75
2022/07/09 01:36:11;;;;;;;22.27;8.05;;;16.80;99.90;;;;;;5025714;28;20056;-75
2022/07/09 01:38:37;;;;;;;18.50;7.38;;;16.80;99.90;;;;;;5036342;28;20086;-76
2022/07/09 01:41:03;;;;;;;21.98;8.18;;;16.80;99.90;;;;;;5017268;28;20128;-77
2022/07/09 01:43:30;;;;;;;20.13;7.70;;;16.80;99.90;;;;;;5053450;28;20120;-75
2022/07/09 01:45:57;;;;;;;16.98;7.63;;;16.80;99.90;;;;;;5072261;28;20041;-77
2022/07/09 01:48:22;;;;;;;21.45;7.80;;;16.80;99.90;;;;;;5055340;28;20037;-75
2022/07/09 01:50:48;;;;;;;22.05;7.45;;;16.80;99.90;;;;;;5057972;28;20068;-75
2022/07/09 01:53:14;;;;;;;18.58;7.38;;;16.70;99.90;;;;;;5074852;28;20131;-76
2022/07/09 01:55:39;;;;;;;21.48;7.40;;;16.80;99.90;;;;;;5045024;28;20767;-76
2022/07/09 01:58:05;;;;;;;19.35;7.70;;;16.70;99.90;;;;;;5042282;28;21263;-77
2022/07/09 02:00:33;;;;;;;19.60;7.70;;;16.70;99.90;;;;;;5053705;28;20107;-77
2022/07/09 02:02:59;;;;;;;22.42;7.47;;;16.70;99.90;;;;;;5063281;28;20494;-76
2022/07/09 02:05:24;;;;;;;20.25;7.15;;;16.60;99.90;;;;;;5032643;28;20036;-76
2022/07/09 02:07:50;;;;;;;19.25;7.10;;;16.60;99.90;;;;;;5048329;28;20044;-76
2022/07/09 02:10:16;;;;;;;20.45;7.47;;;16.50;99.90;;;;;;5060532;28;20028;-76
2022/07/09 02:12:41;;;;;;;22.30;7.28;;;16.60;99.90;;;;;;5027861;28;20044;-77
2022/07/09 02:15:10;;;;;;;25.08;8.13;;;16.60;99.90;;;;;;5027109;28;20055;-75
2022/07/09 02:17:36;;;;;;;22.05;6.93;;;16.60;99.90;;;;;;5080097;28;20116;-76
2022/07/09 02:20:02;;;;;;;22.52;8.15;;;16.60;99.90;;;;;;5051102;28;20444;-76
2022/07/09 02:26:08;;;;;;;21.70;7.40;;;16.50;99.90;;;;;;5065985;28;20196;-74
2022/07/09 02:28:34;;;;;;;26.48;7.35;;;16.50;99.90;;;;;;5081316;28;20143;-76
2022/07/09 02:31:00;;;;;;;17.67;6.88;;;16.50;99.90;;;;;;5058920;28;20110;-76
2022/07/09 02:33:25;;;;;;;20.60;6.72;;;16.50;99.90;;;;;;5032096;28;20043;-76
2022/07/09 02:35:51;;;;;;;17.85;6.85;;;16.60;99.90;;;;;;5031502;28;20120;-76
2022/07/09 02:38:17;;;;;;;18.48;6.75;;;16.50;99.90;;;;;;5076768;28;20043;-76
2022/07/09 02:40:42;;;;;;;22.38;6.30;;;16.50;99.90;;;;;;5062306;28;20120;-76
2022/07/09 02:43:08;;;;;;;16.70;6.05;;;16.50;99.90;;;;;;5029014;28;20155;-76
2022/07/09 02:45:33;;;;;;;19.23;6.53;;;16.50;99.90;;;;;;5045060;28;20040;-77
2022/07/09 02:47:59;;;;;;;19.02;6.03;;;16.50;99.90;;;;;;5036174;28;20040;-78
2022/07/09 02:50:25;;;;;;;21.95;6.05;;;16.50;99.90;;;;;;5069217;28;20128;-75
2022/07/09 02:52:50;;;;;;;14.43;5.95;;;16.50;99.90;;;;;;5080434;28;20045;-76
2022/07/09 02:55:16;;;;;;;17.52;5.40;;;16.50;99.90;;;;;;5075343;28;20032;-76
2022/07/09 02:57:42;;;;;;;18.92;5.97;;;16.50;99.90;;;;;;5043513;28;20033;-76
2022/07/09 03:00:08;;;;;;;13.60;5.25;;;16.50;99.90;;;;;;5076867;28;20041;-76
2022/07/09 03:02:33;;;;;;;19.27;5.43;;;16.40;99.90;;;;;;5044573;28;20051;-76
2022/07/09 03:04:59;;;;;;;17.00;5.35;;;16.50;99.90;;;;;;5044686;28;20048;-78
2022/07/09 03:07:25;;;;;;;10.82;5.05;;;16.40;99.90;;;;;;5062379;28;20052;-77
2022/07/09 03:09:50;;;;;;;12.20;5.13;;;16.40;99.90;;;;;;5076871;28;20109;-76
2022/07/09 03:12:16;;;;;;;14.48;5.45;;;16.40;99.90;;;;;;5044373;28;20120;-76
2022/07/09 03:14:41;;;;;;;14.27;5.15;;;16.40;99.90;;;;;;5042958;28;20130;-77
2022/07/09 03:17:07;;;;;;;17.23;5.70;;;16.30;99.90;;;;;;5043409;28;21580;-77
2022/07/09 03:19:33;;;;;;;17.90;5.65;;;16.40;99.90;;;;;;5075544;28;20044;-77
2022/07/09 03:21:58;;;;;;;17.42;5.80;;;16.40;99.90;;;;;;5022681;28;20052;-77
2022/07/09 03:24:24;;;;;;;15.95;4.75;;;16.40;99.90;;;;;;5059512;28;20476;-77
2022/07/09 03:26:51;;;;;;;12.50;4.75;;;16.40;99.90;;;;;;5057658;28;20143;-75
2022/07/09 03:29:16;;;;;;;17.33;5.13;;;16.30;99.90;;;;;;5061344;28;20171;-75
2022/07/09 03:31:42;;;;;;;15.27;4.95;;;16.40;99.90;;;;;;5044641;28;20047;-75
2022/07/09 03:34:08;;;;;;;12.63;5.28;;;16.30;99.90;;;;;;5043536;28;20052;-75
2022/07/09 03:36:34;;;;;;;17.45;5.15;;;16.30;99.90;;;;;;5041672;28;20052;-75
2022/07/09 03:39:00;;;;;;;13.55;5.38;;;16.30;99.90;;;;;;5031459;28;20044;-76
2022/07/09 03:41:25;;;;;;;19.42;6.13;;;16.30;99.90;;;;;;5018696;28;20056;-75
2022/07/09 03:43:51;;;;;;;16.45;5.35;;;16.30;99.90;;;;;;5062117;28;20391;-76
2022/07/09 03:46:17;;;;;;;15.13;5.28;;;16.20;99.90;;;;;;5068706;28;20348;-76
2022/07/09 03:48:42;;;;;;;15.50;5.72;;;16.30;99.90;;;;;;5088078;28;21946;-73
2022/07/09 03:51:08;;;;;;;16.15;5.82;;;16.30;99.90;;;;;;5055114;28;20039;-74
2022/07/09 03:53:33;;;;;;;20.80;6.25;;;16.20;99.90;;;;;;5044036;28;20487;-77
2022/07/09 03:55:59;;;;;;;14.45;6.00;;;16.20;99.90;;;;;;5032148;28;20136;-75
2022/07/09 03:58:25;;;;;;;12.77;6.20;;;16.30;99.90;;;;;;5026954;28;20139;-75
2022/07/09 04:00:52;;;;;;;16.50;6.07;;;16.30;99.90;;;;;;5066761;28;20051;-77
2022/07/09 04:03:18;;;;;;;17.42;6.22;;;16.40;99.90;;;;;;5023965;28;20044;-76
2022/07/09 04:05:44;;;;;;;13.20;6.20;;;16.40;99.90;;;;;;5076370;28;20055;-77
2022/07/09 04:08:10;;;;;;;17.38;6.35;;;16.40;99.90;;;;;;5046762;28;20032;-76
2022/07/09 04:10:36;;;;;;;20.10;6.57;;;16.40;99.90;;;;;;5078918;28;20041;-77
2022/07/09 04:13:02;;;;;;;17.20;6.60;;;16.40;99.90;;;;;;5067203;28;20063;-76
2022/07/09 04:15:27;;;;;;;15.23;6.03;;;16.30;99.90;;;;;;5081603;28;20040;-76
2022/07/09 04:17:53;;;;;;;15.93;6.10;;;16.30;99.90;;;;;;5061306;28;20432;-76
2022/07/09 04:20:19;;;;;;;12.05;5.82;;;16.30;99.90;;;;;;5044098;28;20044;-77
2022/07/09 04:22:44;;;;;;;13.93;6.20;;;16.50;99.90;;;;;;5059748;28;20121;-76
2022/07/09 04:25:10;;;;;;;10.45;5.65;;;16.50;99.90;;;;;;5074174;28;20503;-76
2022/07/09 04:27:38;;;;;;;19.23;5.72;;;16.50;99.90;;;;;;5035030;28;20142;-75
2022/07/09 04:30:09;;;;;;;19.00;6.15;;;16.50;99.90;;;;;;5045241;28;21618;-75
2022/07/09 04:32:35;;;;;;;15.70;6.13;;;16.50;99.90;;;;;;5044372;28;20082;-75
2022/07/09 04:35:01;;;;;;;15.80;5.35;;;16.50;99.90;;;;;;5058123;28;20503;-76
2022/07/09 04:37:27;;;;;;;16.00;5.85;;;16.50;99.90;;;;;;5073192;28;20131;-76
2022/07/09 04:39:52;;;;;;;17.83;5.82;;;16.50;99.90;;;;;;5048787;28;20047;-76
2022/07/09 04:42:19;;;;;;;12.00;5.70;;;16.50;99.90;;;;;;5061610;28;20134;-76
2022/07/09 04:44:45;;;;;;;14.20;5.97;;;16.50;99.90;;;;;;5028506;28;20125;-77
2022/07/09 04:47:10;;;;;;;14.52;5.75;;;16.60;99.90;;;;;;5063621;28;20060;-76
2022/07/09 04:49:36;;;;;;;11.68;5.55;;;16.60;99.90;;;;;;5049139;28;20047;-76
2022/07/09 04:52:02;;;;;;;13.38;5.40;;;16.60;99.90;;;;;;5046007;28;20057;-76
2022/07/09 04:54:27;;;;;;;12.85;5.45;;;16.70;99.90;;;;;;5059832;28;20052;-75
2022/07/09 04:56:53;;;;;;;12.38;5.53;;;16.70;99.90;;;;;;5024221;28;20565;-76
2022/07/09 04:59:18;;;;;;;14.73;5.97;;;16.80;99.90;;;;;;5045348;28;20084;-78
2022/07/09 05:01:44;;;;;;;23.35;6.45;;;16.80;99.90;;;;;;5031666;28;20028;-75
2022/07/09 05:04:10;;;;;;;15.20;5.78;;;16.80;99.90;;;;;;5057939;28;20040;-76
2022/07/09 05:10:35;;;;;;;17.17;6.03;;;16.90;99.90;;;;;;5061170;28;20115;-75
2022/07/09 05:13:04;;;;;;;10.02;5.53;;;17.00;99.90;;;;;;5087458;28;20040;-73
2022/07/09 05:15:32;;;;;;;14.40;5.70;;;17.10;99.90;;;;;;5065126;28;20048;-76
2022/07/09 05:17:57;;;;;;;14.32;5.80;;;17.00;99.90;;;;;;5027909;28;20471;-77
2022/07/09 05:20:24;;;;;;;15.57;6.38;;;17.10;99.90;;;;;;5044919;28;20036;-77
2022/07/09 05:22:49;;;;;;;15.48;5.53;;;17.10;99.90;;;;;;5060890;28;20059;-75
2022/07/09 05:25:15;;;;;;;14.52;5.60;;;17.20;99.90;;;;;;5028583;28;20048;-77
2022/07/09 05:27:45;;;;;;;10.50;5.20;;;17.20;99.90;;;;;;5059744;28;20120;-76
2022/07/09 05:30:15;;;;;;;12.23;4.70;;;17.20;99.90;;;;;;5076988;28;20589;-76
2022/07/09 05:32:41;;;;;;;17.98;6.03;;;17.30;99.90;;;;;;5056808;28;20036;-76
2022/07/09 05:35:08;;;;;;;10.23;5.18;;;17.30;99.90;;;;;;5027911;28;20037;-77
2022/07/09 05:37:34;;;;;;;13.35;5.07;;;17.40;99.90;;;;;;5037626;28;20045;-76
2022/07/09 05:40:05;;;;;;;11.40;5.25;;;17.40;99.90;;;;;;5056772;28;20044;-77
2022/07/09 05:42:34;;;;;;;12.57;5.25;;;17.40;99.90;;;;;;5055510;28;20460;-77
2022/07/09 05:45:00;;;;;;;10.02;4.35;;;17.40;99.90;;;;;;5080091;28;20051;-77
2022/07/09 05:47:25;;;;;;;14.95;5.57;;;17.50;99.90;;;;;;5038837;28;20057;-76
2022/07/09 05:49:51;;;;;;;11.82;5.03;;;17.50;99.90;;;;;;5023631;28;20403;-76
2022/07/09 05:52:17;;;;;;;16.88;4.82;;;17.50;99.90;;;;;;5060642;28;20057;-76
2022/07/09 05:54:42;;;;;;;17.75;5.28;;;17.60;99.90;;;;;;5045309;28;20071;-76
2022/07/09 05:57:08;;;;;;;10.30;4.68;;;17.50;99.90;;;;;;5058443;28;20052;-76
2022/07/09 05:59:33;;;;;;;10.32;4.10;;;17.60;99.90;;;;;;5044441;28;20093;-77
2022/07/09 06:02:02;;;;;;;15.55;4.63;;;17.70;99.90;;;;;;5026871;28;20052;-76
2022/07/09 06:04:28;;;;;;;14.02;4.45;;;17.60;99.90;;;;;;5026694;28;20040;-77
2022/07/09 06:06:54;;;;;;;7.43;3.67;;;17.70;99.90;;;;;;5042427;28;20048;-78
2022/07/09 06:09:19;;;;;;;9.90;4.03;;;17.70;99.90;;;;;;5041671;28;20177;-77
2022/07/09 06:11:45;;;;;;;13.35;3.80;;;17.80;99.90;;;;;;5043455;28;20052;-76
2022/07/09 06:14:11;;;;;;;11.68;3.90;;;17.90;99.90;;;;;;5027111;28;20070;-76
2022/07/09 06:16:36;;;;;;;7.82;3.22;;;17.90;99.90;;;;;;5045881;28;20136;-76
2022/07/09 06:19:02;;;;;;;11.88;3.60;;;17.90;99.90;;;;;;5029801;28;20120;-76
2022/07/09 06:21:28;;;;;;;12.98;3.70;;;17.90;99.90;;;;;;5046148;28;20130;-75
2022/07/09 06:23:54;;;;;;;13.90;4.15;;;18.00;99.90;;;;;;5031657;28;20048;-76
2022/07/09 06:26:19;;;;;;;9.93;3.47;;;18.00;99.90;;;;;;5045821;28;20033;-75
2022/07/09 06:28:46;;;;;;;8.63;3.60;;;18.20;99.90;;;;;;5049278;28;20072;-76
2022/07/09 06:31:11;;;;;;;10.35;3.47;;;18.20;99.90;;;;;;5086815;28;20344;-76
2022/07/09 06:33:37;;;;;;;9.02;3.30;;;18.30;99.90;;;;;;5075022;28;20051;-73
2022/07/09 06:36:03;;;;;;;12.30;3.13;;;18.20;99.90;;;;;;5060560;28;20102;-73
2022/07/09 06:38:29;;;;;;;7.63;3.13;;;18.30;99.90;;;;;;5073107;28;20036;-77
2022/07/09 06:40:56;;;;;;;11.13;2.85;;;18.40;99.90;;;;;;5023439;28;20031;-78
2022/07/09 06:43:22;;;;;;;9.13;3.10;;;18.40;99.90;;;;;;5063375;28;20037;-76
2022/07/09 06:45:48;;;;;;;7.47;3.13;;;18.50;99.90;;;;;;5039450;28;20036;-78
2022/07/09 06:48:13;;;;;;;5.30;2.70;;;18.40;99.90;;;;;;5085172;28;20047;-76
2022/07/09 06:50:39;;;;;;;9.18;3.10;;;18.40;99.90;;;;;;5060445;28;20037;-78
2022/07/09 06:53:05;;;;;;;11.38;2.85;;;18.30;99.90;;;;;;5081974;28;20049;-76
2022/07/09 06:55:30;;;;;;;10.18;3.13;;;18.40;99.90;;;;;;5072463;28;20562;-78
2022/07/09 06:57:57;;;;;;;7.80;2.95;;;18.50;99.90;;;;;;5057299;28;20123;-77
2022/07/09 07:00:23;;;;;;;10.68;3.10;;;18.40;99.90;;;;;;5054437;28;20098;-78
2022/07/09 07:02:50;;;;;;;8.98;2.72;;;18.60;99.90;;;;;;5090586;28;20040;-78
2022/07/09 07:05:15;;;;;;;13.40;3.30;;;18.70;99.90;;;;;;5054641;28;20190;-77
2022/07/09 07:07:41;;;;;;;8.95;2.95;;;18.80;99.90;;;;;;5072706;28;20060;-74
2022/07/09 07:10:08;;;;;;;9.52;2.70;;;18.80;99.90;;;;;;5085401;28;20119;-77
2022/07/09 07:12:34;;;;;;;11.75;3.05;;;18.90;99.90;;;;;;5047867;28;20880;-78
2022/07/09 07:15:00;;;;;;;7.25;2.80;;;18.80;99.90;;;;;;5056903;28;20055;-77
2022/07/09 07:17:25;;;;;;;8.38;2.55;;;19.00;99.90;;;;;;5050698;28;20044;-76
2022/07/09 07:19:51;;;;;;;7.80;2.45;;;19.00;99.90;;;;;;5059344;28;20151;-78
2022/07/09 07:22:16;;;;;;;10.00;2.67;;;19.10;99.90;;;;;;5079170;28;20047;-77
2022/07/09 07:24:42;;;;;;;9.35;2.50;;;19.10;99.90;;;;;;5029909;28;20045;-76
2022/07/09 07:27:08;;;;;;;6.68;1.90;;;19.20;99.90;;;;;;5057644;28;20060;-78
2022/07/09 07:29:33;;;;;;;10.05;2.03;;;19.10;99.90;;;;;;5078606;28;20048;-77
2022/07/09 07:31:59;;;;;;;6.88;1.67;;;19.10;99.90;;;;;;5028614;28;20044;-77
2022/07/09 07:34:25;;;;;;;6.00;1.63;;;19.20;99.90;;;;;;5049127;28;20028;-79
2022/07/09 07:36:51;;;;;;;7.45;1.75;;;19.30;99.90;;;;;;5035214;28;20391;-78
2022/07/09 07:39:18;;;;;;;6.85;1.70;;;19.30;99.90;;;;;;5057648;28;20051;-76
2022/07/09 07:41:44;;;;;;;8.40;1.92;;;19.40;99.90;;;;;;5085265;28;20155;-76
2022/07/09 07:44:09;;;;;;;8.10;1.70;;;19.50;99.90;;;;;;5030356;28;20159;-77
2022/07/09 07:46:35;;;;;;;7.78;1.70;;;19.70;99.90;;;;;;5078226;28;20068;-75
2022/07/09 07:49:04;;;;;;;7.90;1.52;;;19.50;99.90;;;;;;5060348;28;20504;-76
2022/07/09 07:51:30;;;;;;;3.85;1.30;;;19.40;99.90;;;;;;5069871;28;20045;-78
2022/07/09 07:54:35;;;;;;;9.30;1.88;;;19.40;99.90;;;;;;5060063;28;20032;-75
2022/07/09 07:57:02;;;;;;;9.55;1.58;;;19.40;99.90;;;;;;5085246;28;20059;-74
2022/07/09 07:59:28;;;;;;;7.63;1.80;;;19.50;99.90;;;;;;5020659;28;20045;-75
2022/07/09 08:01:54;;;;;;;9.57;2.17;;;19.60;99.90;;;;;;5059933;28;20471;-75
2022/07/09 08:04:19;;;;;;;4.28;1.40;;;19.50;99.90;;;;;;5083892;28;20036;-76
2022/07/09 08:06:45;;;;;;;7.93;1.50;;;19.50;99.90;;;;;;5028363;28;20045;-77
2022/07/09 08:09:11;;;;;;;10.93;2.10;;;19.60;99.90;;;;;;5085061;28;20542;-76
2022/07/09 08:11:36;;;;;;;9.60;1.83;;;19.50;99.90;;;;;;5036329;28;20040;-79
2022/07/09 08:14:08;;;;;;;6.95;1.85;;;19.50;99.90;;;;;;5029750;28;20320;-79
2022/07/09 08:16:34;;;;;;;10.55;2.03;;;19.70;99.90;;;;;;5053396;28;20509;-76
2022/07/09 08:19:00;;;;;;;11.43;1.73;;;19.60;99.90;;;;;;5085535;28;20071;-76
2022/07/09 08:21:26;;;;;;;10.52;1.70;;;19.60;99.90;;;;;;5036783;28;20079;-78
2022/07/09 08:23:51;;;;;;;8.00;2.13;;;19.60;99.90;;;;;;5085822;28;20143;-77
2022/07/09 08:26:22;;;;;;;5.32;1.50;;;19.50;99.90;;;;;;5055099;28;20503;-76
2022/07/09 08:28:48;;;;;;;6.03;1.60;;;19.50;99.90;;;;;;5043839;28;20048;-74
2022/07/09 08:31:18;;;;;;;11.20;2.08;;;19.40;99.90;;;;;;5064657;28;20036;-77
2022/07/09 08:33:43;;;;;;;8.00;1.88;;;19.40;99.90;;;;;;5028781;28;20158;-77
2022/07/09 08:36:09;;;;;;;7.25;1.65;;;19.40;99.90;;;;;;5054048;28;20411;-77
2022/07/09 08:38:35;;;;;;;8.73;1.80;;;19.60;99.90;;;;;;5063182;28;21101;-76
2022/07/09 08:41:03;;;;;;;10.52;1.85;;;19.60;99.90;;;;;;5041969;28;20051;-77
2022/07/09 08:43:35;;;;;;;4.78;1.27;;;19.80;99.90;;;;;;5076968;28;20060;-76
2022/07/09 08:46:04;;;;;;;7.38;1.38;;;19.90;99.90;;;;;;5031036;28;20475;-75
2022/07/09 08:48:37;;;;;;;10.07;1.70;;;20.00;99.90;;;;;;5075234;28;20053;-75
2022/07/09 08:51:03;;;;;;;7.82;1.60;;;20.30;99.90;;;;;;5050921;28;20040;-77
2022/07/09 08:53:29;;;;;;;12.10;1.88;;;20.20;99.90;;;;;;5054639;28;20075;-77
2022/07/09 08:55:56;;;;;;;11.20;1.75;;;20.20;99.90;;;;;;5058497;28;20098;-76
2022/07/09 08:58:23;;;;;;;5.57;1.27;;;20.30;99.90;;;;;;5080730;28;20387;-79
2022/07/09 09:00:50;;;;;;;12.07;1.63;;;20.50;99.90;;;;;;5065549;28;20070;-78
2022/07/09 09:03:17;;;;;;;7.45;1.92;;;20.60;99.90;;;;;;5045348;28;20047;-76
2022/07/09 09:05:43;;;;;;;11.27;1.98;;;20.50;99.90;;;;;;5064728;28;20040;-77
2022/07/09 09:08:20;;;;;;;6.50;1.48;;;20.30;99.90;;;;;;5044330;28;20093;-79
2022/07/09 09:10:46;;;;;;;12.50;1.60;;;20.40;99.90;;;;;;5042347;28;20149;-77
2022/07/09 09:13:15;;;;;;;6.07;1.60;;;20.40;99.90;;;;;;5082531;28;20033;-78
2022/07/09 09:15:41;;;;;;;7.30;1.67;;;20.50;99.90;;;;;;5065140;28;20044;-77
2022/07/09 09:18:07;;;;;;;8.95;1.90;;;20.70;99.90;;;;;;5053343;28;20052;-75
2022/07/09 09:20:32;;;;;;;7.32;1.95;;;20.80;99.90;;;;;;5087412;28;20071;-76
2022/07/09 09:23:02;;;;;;;6.63;1.42;;;20.50;99.90;;;;;;5057881;28;20076;-78
2022/07/09 09:25:28;;;;;;;11.48;1.60;;;20.30;99.90;;;;;;5018716;28;20061;-76
2022/07/09 09:27:54;;;;;;;9.27;1.80;;;20.40;99.90;;;;;;5050247;28;20045;-79
2022/07/09 09:30:21;;;;;;;12.07;2.10;;;20.40;99.90;;;;;;5069593;28;20388;-76
2022/07/09 09:33:02;;;;;;;9.40;1.83;;;20.40;99.90;;;;;;5077056;28;20052;-77
2022/07/09 09:35:30;;;;;;;7.13;1.65;;;20.30;99.90;;;;;;5064856;28;20037;-79
2022/07/09 09:37:56;;;;;;;9.10;1.40;;;20.00;99.90;;;;;;5079709;28;20064;-81
2022/07/09 09:40:23;;;;;;;6.32;1.90;;;20.20;99.90;;;;;;5078362;28;20036;-80
2022/07/09 09:42:49;;;;;;;8.52;2.10;;;20.40;99.90;;;;;;5060984;28;20135;-77
2022/07/09 09:45:16;;;;;;;9.77;2.00;;;20.50;99.90;;;;;;5051195;28;20120;-79
2022/07/09 09:47:50;;;;;;;5.85;1.50;;;20.60;99.90;;;;;;5078589;28;20489;-79
2022/07/09 09:50:20;;;;;;;11.55;1.80;;;20.60;99.90;;;;;;5051968;28;20086;-76
2022/07/09 09:52:47;;;;;;;7.72;1.60;;;20.60;99.90;;;;;;5046095;28;20080;-76
2022/07/09 09:55:14;;;;;;;7.85;1.42;;;20.80;99.90;;;;;;5058842;28;20538;-79
2022/07/09 09:57:41;;;;;;;7.32;1.70;;;21.00;99.90;;;;;;5040967;28;20375;-75
2022/07/09 10:00:08;;;;;;;5.82;1.52;;;21.10;99.90;;;;;;5044750;28;20117;-77
2022/07/09 10:02:37;;;;;;;7.68;1.70;;;21.20;99.90;;;;;;5041252;28;20435;-75
2022/07/09 10:05:03;;;;;;;7.40;1.50;;;21.30;99.90;;;;;;5079566;28;20498;-75
2022/07/09 10:07:31;;;;;;;7.85;1.50;;;21.20;99.90;;;;;;5047844;28;20152;-77
2022/07/09 10:09:59;;;;;;;17.58;2.40;;;21.10;99.90;;;;;;5034396;28;20132;-76
2022/07/09 10:12:28;;;;;;;8.50;1.98;;;21.20;99.90;;;;;;5051086;28;20040;-75
2022/07/09 10:14:54;;;;;;;6.55;1.52;;;21.30;99.90;;;;;;5052375;28;20048;-76
2022/07/09 10:17:20;;;;;;;5.85;1.30;;;21.40;99.90;;;;;;5079201;28;20505;-76
2022/07/09 10:19:55;;;;;;;9.57;1.88;;;20.70;99.90;;;;;;5030026;28;20048;-77
2022/07/09 10:22:22;;;;;;;10.63;1.50;;;19.80;99.90;;;;;;5074981;28;20036;-75
2022/07/09 10:24:52;;;;;;;15.35;2.00;;;19.10;99.90;;;;;;5064399;28;20040;-76
2022/07/09 10:27:18;;;;;;;16.52;2.40;;;18.60;99.90;;;;;;5053390;28;20060;-78
2022/07/09 10:29:59;;;;;;;11.48;2.20;;;18.30;99.90;;;;;;5051208;28;20044;-78
2022/07/09 10:32:32;;;;;;;10.90;2.33;;;18.00;99.90;;;;;;5079142;28;20083;-76
2022/07/09 10:35:06;;;;;;;8.65;2.10;;;18.00;99.90;;;;;;5082809;28;20561;-77
2022/07/09 10:37:35;;;;;;;12.57;2.60;;;17.80;99.90;;;;;;5051918;28;20045;-75
2022/07/09 10:40:22;;;;;;;14.77;2.72;;;18.00;99.90;;;;;;5057733;28;20048;-75
2022/07/09 10:42:59;;;;;;;10.63;1.90;;;18.20;99.90;;;;;;5086397;28;20388;-77
2022/07/09 10:45:26;;;;;;;13.90;2.78;;;18.20;99.90;;;;;;5047738;28;20052;-78
2022/07/09 10:47:57;;;;;;;13.60;2.33;;;18.30;99.90;;;;;;5067663;28;20093;-76
2022/07/09 10:50:24;;;;;;;11.52;2.25;;;18.40;99.90;;;;;;5052242;28;20052;-76
2022/07/09 10:52:50;;;;;;;15.70;2.58;;;18.40;99.90;;;;;;5041149;28;20101;-77
2022/07/09 10:55:21;;;;;;;20.98;2.17;;;18.70;99.90;;;;;;5034508;28;20483;-77
2022/07/09 10:57:47;;;;;;;10.57;1.90;;;18.90;99.90;;;;;;5055207;28;20044;-77
2022/07/09 11:00:18;;;;;;;9.68;1.90;;;19.00;99.90;;;;;;5042988;28;20040;-78
2022/07/09 11:03:04;;;;;;;8.55;2.10;;;19.10;99.90;;;;;;5077836;28;20033;-74
2022/07/09 11:05:33;;;;;;;6.63;1.35;;;19.10;99.90;;;;;;5046739;28;20083;-79
2022/07/09 11:08:04;;;;;;;8.65;1.30;;;19.00;99.90;;;;;;5040614;28;20053;-77
2022/07/09 11:10:31;;;;;;;8.25;1.55;;;19.20;99.90;;;;;;5064159;28;20153;-77
2022/07/09 11:12:58;;;;;;;7.18;1.33;;;19.50;99.90;;;;;;5053953;28;20063;-79
2022/07/09 11:15:26;;;;;;;8.85;1.80;;;19.70;99.90;;;;;;5085920;28;20035;-76
2022/07/09 11:18:13;;;;;;;8.10;1.23;;;19.70;99.90;;;;;;5090092;28;20083;-77
2022/07/09 11:20:46;;;;;;;7.70;1.70;;;19.60;99.90;;;;;;5048467;28;20040;-78
2022/07/09 11:23:16;;;;;;;7.18;1.30;;;19.50;99.90;;;;;;5060049;28;20221;-77
2022/07/09 11:25:43;;;;;;;11.80;1.30;;;19.60;99.90;;;;;;5019972;28;20052;-78
2022/07/09 11:28:19;;;;;;;9.75;1.15;;;19.70;99.90;;;;;;5059423;28;20167;-77
2022/07/09 11:30:45;;;;;;;5.05;1.15;;;19.80;99.90;;;;;;5044155;28;20052;-78
2022/07/09 11:33:14;;;;;;;9.80;1.60;;;19.90;99.90;;;;;;5042339;28;20043;-76
2022/07/09 11:35:43;;;;;;;7.18;1.38;;;20.30;99.90;;;;;;5061586;28;20997;-76
2022/07/09 11:38:09;;;;;;;4.97;1.23;;;20.30;99.90;;;;;;5027713;28;20056;-76
2022/07/09 11:40:34;;;;;;;6.30;1.40;;;20.60;99.90;;;;;;5077270;28;20060;-76
2022/07/09 11:43:00;;;;;;;6.82;1.38;;;20.60;99.90;;;;;;5061759;28;20107;-78
2022/07/09 11:45:27;;;;;;;5.85;1.10;;;20.70;99.90;;;;;;5051524;28;20097;-79
2022/07/09 11:48:12;;;;;;;6.88;1.40;;;20.80;99.90;;;;;;5080363;28;20044;-77
2022/07/09 11:50:43;;;;;;;7.63;1.20;;;20.70;99.90;;;;;;5052397;28;20106;-79
2022/07/09 11:53:19;;;;;;;4.82;1.05;;;20.80;99.90;;;;;;5046517;28;20225;-78
2022/07/09 11:56:03;;;;;;;7.53;1.10;;;20.80;99.90;;;;;;5044626;28;20045;-76
2022/07/09 11:58:29;;;;;;;7.80;1.50;;;20.90;99.90;;;;;;5047581;28;20044;-76
2022/07/09 12:00:55;;;;;;;10.20;1.50;;;20.50;99.90;;;;;;5059968;28;20408;-74
2022/07/09 12:03:26;;;;;;;8.13;1.30;;;20.30;99.90;;;;;;5048114;28;20068;-74
2022/07/09 12:05:52;;;;;;;6.25;1.35;;;20.70;99.90;;;;;;5047711;28;20115;-75
2022/07/09 12:08:30;;;;;;;4.82;1.40;;;20.90;99.90;;;;;;5078092;28;20120;-73
2022/07/09 12:10:56;;;;;;;4.75;1.33;;;20.80;99.90;;;;;;5080002;28;20036;-75
2022/07/09 12:13:22;;;;;;;4.90;1.20;;;20.80;99.90;;;;;;5046223;28;20037;-75
2022/07/09 12:15:48;;;;;;;5.50;1.30;;;20.90;99.90;;;;;;5048961;28;20617;-75
2022/07/09 12:18:13;;;;;;;6.50;1.30;;;21.10;99.90;;;;;;5059328;28;20059;-75
2022/07/09 12:20:39;;;;;;;11.43;1.92;;;21.20;99.90;;;;;;5031898;28;20052;-75
2022/07/09 12:23:05;;;;;;;5.82;1.15;;;21.20;99.90;;;;;;5073002;28;20376;-77
2022/07/09 12:25:31;;;;;;;7.35;1.45;;;21.20;99.90;;;;;;5041346;28;20468;-79
2022/07/09 12:27:57;;;;;;;6.43;1.30;;;21.20;99.90;;;;;;5057869;28;20072;-76
2022/07/09 12:30:22;;;;;;;8.05;1.20;;;21.00;99.90;;;;;;5037762;28;21265;-76
2022/07/09 12:32:49;;;;;;;9.25;1.30;;;21.20;99.90;;;;;;5075136;28;20032;-77
2022/07/09 12:35:16;;;;;;;5.70;1.23;;;21.50;99.90;;;;;;5053020;28;20036;-79
2022/07/09 12:37:42;;;;;;;8.70;1.73;;;21.50;99.90;;;;;;5052892;28;20059;-76
2022/07/09 12:40:10;;;;;;;6.60;1.60;;;21.10;99.90;;;;;;5052765;28;20127;-80
2022/07/09 12:42:36;;;;;;;7.63;1.70;;;21.10;99.90;;;;;;5046498;28;20045;-76
2022/07/09 12:45:02;;;;;;;5.28;1.45;;;21.00;99.90;;;;;;5047972;28;20413;-78
2022/07/09 12:47:28;;;;;;;10.80;1.90;;;21.50;99.90;;;;;;5041795;28;20044;-76